.
WxDataArchive / Data Records for 2009-04-30
2009-04-29 April 2009 2009-05-01

Data Records for Thursday, 30 April 2009

Time	Temp	Chill	HIndex	Humid	Dewpt	 Wind 	HiWind	WindDir	Rain 	Barom 
-----	----	-----	------	-----	-----	------	------	-------	-----	----- 
00:00	52.9	52.9	52.9	86	48.8	1	5	68	0.00	30.214 
00:05	52.9	52.9	52.9	87	49.1	2	3	68	0.00	30.214 
00:10	53.1	53.1	53.1	87	49.3	1	4	90	0.00	30.214 
00:15	52.9	52.9	52.9	86	48.8	2	5	90	0.00	30.207 
00:20	52.9	52.9	52.9	86	48.8	2	4	68	0.00	30.207 
00:25	52.9	52.9	52.9	86	48.8	2	5	112	0.00	30.207 
00:30	52.9	52.9	52.9	86	48.8	2	5	90	0.00	30.207 
00:35	52.8	52.8	52.8	87	49.0	1	3	135	0.00	30.207 
00:40	52.6	52.6	52.6	88	49.1	1	4	90	0.00	30.207 
00:45	52.5	52.5	52.5	88	49.0	1	4	90	0.00	30.205 
00:50	52.2	52.2	52.2	89	49.1	2	5	90	0.00	30.205 
00:55	51.9	51.9	51.9	89	48.8	2	4	90	0.00	30.205 
01:00	51.7	51.7	51.7	90	48.9	1	4	112	0.00	30.203 
01:05	51.6	51.6	51.6	90	48.8	1	4	90	0.00	30.203 
01:10	51.3	51.3	51.3	90	48.5	2	5	90	0.00	30.203 
01:15	51.1	51.1	51.1	90	48.3	1	3	90	0.00	30.196 
01:20	51.0	51.0	51.0	90	48.2	2	5	90	0.00	30.196 
01:25	51.0	51.0	51.0	89	47.9	1	4	90	0.00	30.196 
01:30	50.8	50.8	50.8	89	47.7	1	3	90	0.00	30.191 
01:35	50.8	50.8	50.8	89	47.7	1	3	90	0.00	30.191 
01:40	50.8	50.8	50.8	89	47.7	1	2	90	0.00	30.191 
01:45	50.8	50.8	50.8	90	48.0	0	3	90	0.00	30.182 
01:50	50.8	50.8	50.8	90	48.0	0	2	90	0.00	30.182 
01:55	50.8	50.8	50.8	90	48.0	1	3	90	0.00	30.182 
02:00	50.8	50.8	50.8	90	48.0	1	2	90	0.00	30.178 
02:05	50.8	50.8	50.8	90	48.0	1	3	90	0.00	30.178 
02:10	50.8	50.8	50.8	90	48.0	1	3	90	0.00	30.178 
02:15	50.8	50.8	50.8	89	47.7	2	5	112	0.00	30.174 
02:20	50.7	50.7	50.7	88	47.3	1	3	90	0.00	30.174 
02:25	50.5	50.5	50.5	87	46.8	1	3	90	0.00	30.174 
02:30	50.4	50.4	50.4	86	46.4	1	5	112	0.00	30.163 
02:35	50.2	50.2	50.2	85	45.9	1	4	112	0.00	30.163 
02:40	50.1	50.1	50.1	85	45.8	2	5	90	0.00	30.163 
02:45	50.1	50.1	50.1	84	45.5	1	4	112	0.00	30.159 
02:50	49.9	49.9	49.9	84	45.3	1	3	112	0.00	30.159 
02:55	49.8	49.8	49.8	84	45.2	1	5	112	0.00	30.159 
03:00	49.8	49.8	49.8	84	45.2	1	4	90	0.00	30.149 
03:05	49.6	49.6	49.6	84	45.0	1	3	90	0.00	30.149 
03:10	49.6	49.6	49.6	84	45.0	1	4	112	0.00	30.149 
03:15	49.6	49.6	49.6	84	45.0	1	3	112	0.00	30.142 
03:20	49.6	49.6	49.6	83	44.7	1	3	112	0.00	30.142 
03:25	49.5	49.5	49.5	84	44.9	0	2	112	0.00	30.142 
03:30	49.5	49.5	49.5	84	44.9	0	3	112	0.00	30.139 
03:35	49.4	49.4	49.4	84	44.8	1	3	112	0.00	30.139 
03:40	49.4	49.4	49.4	84	44.8	1	2	90	0.00	30.139 
03:45	49.4	49.4	49.4	84	44.8	1	4	90	0.00	30.129 
03:50	49.2	49.2	49.2	84	44.6	0	2	112	0.00	30.129 
03:55	49.2	49.2	49.2	85	44.9	0	2	112	0.00	30.129 
04:00	49.1	49.1	49.1	85	44.8	1	4	112	0.00	30.124 
04:05	49.1	49.1	49.1	85	44.8	1	4	112	0.00	30.124 
04:10	49.1	49.1	49.1	85	44.8	1	4	112	0.00	30.124 
04:15	49.1	49.1	49.1	86	45.1	1	3	112	0.00	30.112 
04:20	49.1	49.1	49.1	86	45.1	1	4	112	0.00	30.112 
04:25	48.9	48.9	48.9	86	44.9	1	3	135	0.00	30.112 
04:30	48.9	48.9	48.9	87	45.2	1	2	135	0.00	30.108 
04:35	48.9	48.9	48.9	87	45.2	0	2	135	0.00	30.108 
04:40	48.9	48.9	48.9	87	45.2	0	2	135	0.00	30.108 
04:45	48.9	48.9	48.9	87	45.2	1	4	112	0.00	30.101 
04:50	48.9	48.9	48.9	88	45.5	0	2	112	0.00	30.101 
04:55	48.9	48.9	48.9	88	45.5	0	2	112	0.00	30.101 
05:00	48.9	48.9	48.9	88	45.5	0	2	112	0.00	30.097 
05:05	48.9	48.9	48.9	88	45.5	0	1	112	0.00	30.097 
05:10	49.1	49.1	49.1	89	46.0	1	3	112	0.00	30.097 
05:15	49.1	49.1	49.1	89	46.0	0	2	112	0.00	30.087 
05:20	49.1	49.1	49.1	89	46.0	0	2	112	0.00	30.087 
05:25	49.2	49.2	49.2	90	46.4	1	2	112	0.00	30.087 
05:30	49.2	49.2	49.2	90	46.4	1	3	112	0.00	30.081 
05:35	49.4	49.4	49.4	90	46.6	1	3	68	0.00	30.081 
05:40	49.4	49.4	49.4	91	46.9	0	2	68	0.00	30.081 
05:45	49.5	49.5	49.5	91	47.0	1	2	68	0.00	30.073 
05:50	49.8	49.8	49.8	92	47.6	1	2	68	0.00	30.073 
05:55	49.8	49.8	49.8	92	47.6	1	3	68	0.00	30.073 
06:00	49.8	49.8	49.8	92	47.6	0	2	68	0.00	30.068 
06:05	49.9	49.9	49.9	92	47.7	1	2	68	0.00	30.068 
06:10	49.9	49.9	49.9	92	47.7	1	2	68	0.00	30.068 
06:15	49.9	49.9	49.9	92	47.7	0	2	68	0.00	30.066 
06:20	49.9	49.9	49.9	92	47.7	0	2	68	0.00	30.066 
06:25	50.1	50.1	50.1	92	47.9	0	3	68	0.00	30.066 
06:30	50.2	50.2	50.2	92	48.0	0	2	68	0.00	30.065 
06:35	50.2	50.2	50.2	92	48.0	0	2	68	0.00	30.065 
06:40	50.2	50.2	50.2	92	48.0	0	1	68	0.00	30.065 
06:45	50.2	50.2	50.2	92	48.0	0	3	68	0.00	30.062 
06:50	50.4	50.4	50.4	92	48.2	0	2	68	0.00	30.062 
06:55	50.4	50.4	50.4	93	48.5	1	3	68	0.00	30.062 
07:00	50.5	50.5	50.5	93	48.6	0	2	68	0.00	30.058 
07:05	50.7	50.7	50.7	93	48.7	1	3	68	0.00	30.058 
07:10	50.8	50.8	50.8	93	48.8	1	3	68	0.00	30.058 
07:15	50.8	50.8	50.8	93	48.8	2	4	90	0.00	30.050 
07:20	50.8	50.8	50.8	93	48.8	1	3	90	0.00	30.050 
07:25	50.8	50.8	50.8	93	48.8	1	3	90	0.00	30.050 
07:30	51.0	51.0	51.0	93	49.0	0	3	90	0.00	30.047 
07:35	51.3	51.3	51.3	94	49.6	1	4	90	0.00	30.047 
07:40	51.4	51.4	51.4	94	49.7	1	3	90	0.00	30.047 
07:45	51.6	51.6	51.6	94	49.9	1	3	90	0.00	30.047 
07:50	51.9	51.9	51.9	94	50.2	0	2	90	0.00	30.047 
07:55	52.0	52.0	52.0	94	50.3	1	3	90	0.00	30.047 
08:00	52.2	52.2	52.2	94	50.5	0	4	90	0.00	30.046 
08:05	52.3	52.3	52.3	94	50.6	0	1	90	0.00	30.046 
08:10	52.3	52.3	52.3	94	50.6	0	2	90	0.00	30.046 
08:15	52.5	52.5	52.5	94	50.8	0	2	90	0.00	30.047 
08:20	52.6	52.6	52.6	94	50.9	0	1	90	0.00	30.047 
08:25	52.8	52.8	52.8	94	51.1	0	2	90	0.00	30.047 
08:30	52.9	52.9	52.9	95	51.5	0	1	90	0.00	30.038 
08:35	53.2	53.2	53.2	95	51.8	0	2	90	0.00	30.038 
08:40	53.5	53.5	53.5	95	52.1	1	3	90	0.00	30.038 
08:45	53.6	53.6	53.6	95	52.2	0	1	90	0.00	30.032 
08:50	53.9	53.9	53.9	95	52.5	0	3	90	0.00	30.032 
08:55	54.1	54.1	54.1	95	52.7	0	2	90	0.00	30.032 
09:00	54.4	54.4	54.4	95	53.0	1	3	90	0.00	30.024 
09:05	54.7	54.7	54.7	95	53.3	1	3	90	0.00	30.024 
09:10	55.0	55.0	55.0	95	53.6	1	3	90	0.00	30.024 
09:15	55.3	55.3	55.3	95	53.9	1	3	90	0.00	30.020 
09:20	55.7	55.7	55.7	95	54.3	1	2	90	0.00	30.020 
09:25	56.0	56.0	56.0	95	54.6	0	2	90	0.00	30.020 
09:30	56.5	56.5	56.5	95	55.1	0	2	90	0.00	30.014 
09:35	56.7	56.7	56.7	95	55.3	0	2	90	0.00	30.014 
09:40	56.9	56.9	56.9	95	55.5	1	4	90	0.00	30.014 
09:45	57.0	57.0	57.0	95	55.6	0	2	90	0.00	30.009 
09:50	57.2	57.2	57.2	95	55.8	1	3	90	0.00	30.009 
09:55	57.5	57.5	57.5	95	56.1	1	4	68	0.00	30.009 
10:00	57.6	57.6	57.6	95	56.2	1	5	68	0.00	29.992 
10:05	58.0	58.0	58.0	95	56.6	0	1	68	0.00	29.992 
10:10	58.1	58.1	58.1	95	56.7	0	1	68	0.08	29.992 
10:15	58.1	58.1	58.1	95	56.7	0	1	68	0.00	29.996 
10:20	58.3	58.3	58.3	95	56.9	0	2	68	0.00	29.996 
10:25	58.3	58.3	58.3	95	56.9	0	1	68	0.00	29.996 
10:30	58.3	58.3	58.3	95	56.9	0	0	---	0.01	30.003 
10:35	58.3	58.3	58.3	95	56.9	0	0	---	0.01	30.003 
10:40	58.4	58.4	58.4	95	57.0	0	0	---	0.00	30.003 
10:45	58.4	58.4	58.4	95	57.0	0	0	---	0.00	29.994 
10:50	58.7	58.7	58.7	96	57.6	0	1	68	0.00	29.994 
10:55	58.9	58.9	58.9	96	57.8	0	0	---	0.00	29.994 
11:00	59.2	59.2	59.2	96	58.1	0	0	---	0.01	29.989 
11:05	59.8	59.8	59.8	96	58.7	0	4	248	0.00	29.989 
11:10	60.5	60.5	60.5	96	59.4	0	2	248	0.01	29.989 
11:15	61.2	61.2	61.2	96	60.0	0	3	248	0.00	29.979 
11:20	61.6	61.6	61.6	96	60.4	1	4	248	0.01	29.979 
11:25	62.0	62.0	62.0	96	60.8	0	3	292	0.00	29.979 
11:30	62.1	62.1	62.1	96	60.9	1	3	292	0.00	29.973 
11:35	62.3	62.3	62.3	96	61.1	1	3	292	0.01	29.973 
11:40	62.4	62.4	62.4	96	61.2	1	3	248	0.00	29.973 
11:45	62.4	62.4	62.4	96	61.2	1	4	225	0.01	29.973 
11:50	62.4	62.4	62.4	96	61.2	1	3	90	0.01	29.973 
11:55	62.6	62.6	62.6	96	61.4	1	4	112	0.01	29.973 
12:00	62.6	62.6	62.6	96	61.4	2	5	90	0.00	29.958 
12:05	62.6	62.6	62.6	96	61.4	1	4	68	0.01	29.958 
12:10	62.6	62.6	62.6	96	61.4	2	6	90	0.03	29.958 
12:15	62.6	62.6	62.6	96	61.4	1	4	90	0.01	29.957 
12:20	62.7	62.7	62.7	96	61.5	2	6	90	0.00	29.957 
12:25	62.9	62.9	62.9	96	61.7	2	5	45	0.00	29.957 
12:30	63.1	63.1	63.1	96	61.9	2	5	158	0.00	29.945 
12:35	63.1	63.1	63.1	96	61.9	2	8	90	0.00	29.945 
12:40	63.1	63.1	63.1	95	61.6	3	5	90	0.01	29.945 
12:45	63.1	63.1	63.1	95	61.6	2	4	90	0.01	29.934 
12:50	63.2	63.2	63.2	95	61.7	2	5	112	0.00	29.934 
12:55	63.2	63.2	63.2	95	61.7	2	6	90	0.01	29.934 
13:00	63.4	63.4	63.4	95	61.9	2	7	90	0.00	29.925 
13:05	63.4	63.4	63.4	95	61.9	2	7	90	0.00	29.925 
13:10	63.5	63.5	63.5	95	62.0	2	6	90	0.00	29.925 
13:15	63.5	63.5	63.5	95	62.0	2	5	90	0.01	29.905 
13:20	63.7	63.7	63.7	95	62.2	2	5	90	0.01	29.905 
13:25	64.2	64.2	64.2	95	62.7	3	8	90	0.00	29.905 
13:30	64.5	64.5	64.5	95	63.0	3	6	112	0.00	29.881 
13:35	64.5	64.5	64.5	95	63.0	2	7	90	0.00	29.881 
13:40	64.3	64.3	64.3	94	62.5	3	10	112	0.01	29.881 
13:45	64.2	64.2	64.2	94	62.4	2	6	112	0.00	29.866 
13:50	64.0	64.0	64.0	94	62.2	3	9	112	0.00	29.866 
13:55	64.0	64.0	64.0	94	62.2	3	7	112	0.02	29.866 
14:00	63.9	63.9	63.9	94	62.1	4	10	112	0.01	29.850 
14:05	63.9	63.9	63.9	94	62.1	3	7	90	0.00	29.850 
14:10	63.7	63.7	63.7	94	61.9	4	10	90	0.01	29.850 
14:15	63.7	63.7	63.7	94	61.9	3	9	90	0.00	29.843 
14:20	63.7	63.7	63.7	94	61.9	3	7	90	0.01	29.843 
14:25	63.9	63.9	63.9	94	62.1	4	11	90	0.00	29.843 
14:30	64.0	64.0	64.0	94	62.2	3	10	90	0.00	29.838 
14:35	64.0	64.0	64.0	94	62.2	3	7	112	0.01	29.838 
14:40	64.2	64.2	64.2	94	62.4	2	9	248	0.01	29.838 
14:45	64.2	64.2	64.2	94	62.4	3	7	90	0.00	29.832 
14:50	64.3	64.3	64.3	94	62.5	3	7	270	0.00	29.832 
14:55	64.7	64.7	64.7	94	62.9	3	7	90	0.00	29.832 
15:00	64.7	64.7	64.7	93	62.6	2	7	68	0.01	29.830 
15:05	64.8	64.8	64.8	93	62.7	2	7	315	0.00	29.830 
15:10	64.8	64.8	64.8	93	62.7	2	7	270	0.00	29.830 
15:15	65.5	65.5	65.5	94	63.7	2	5	315	0.00	29.823 
15:20	65.6	65.6	65.6	93	63.5	2	9	248	0.00	29.823 
15:25	65.8	65.8	65.8	92	63.4	4	10	248	0.00	29.823 
15:30	65.8	65.8	65.8	91	63.1	4	13	248	0.00	29.816 
15:35	66.3	66.3	66.3	91	63.6	4	11	248	0.00	29.816 
15:40	66.4	66.4	66.4	90	63.4	4	14	270	0.00	29.816 
15:45	66.9	66.9	66.9	89	63.5	3	11	248	0.00	29.805 
15:50	67.3	67.3	67.3	88	63.6	3	9	270	0.00	29.805 
15:55	67.4	67.4	67.4	87	63.4	2	7	248	0.00	29.805 
16:00	67.6	67.6	67.6	85	62.9	4	11	270	0.00	29.802 
16:05	67.6	67.6	67.6	84	62.6	5	12	270	0.00	29.802 
16:10	67.6	67.6	67.6	84	62.6	5	18	248	0.00	29.802 
16:15	67.6	67.6	67.6	83	62.2	6	16	248	0.00	29.801 
16:20	67.8	67.8	67.8	83	62.4	5	15	270	0.00	29.801 
16:25	67.9	67.9	67.9	84	62.9	3	9	270	0.00	29.801 
16:30	67.8	67.8	67.8	84	62.8	4	10	270	0.00	29.800 
16:35	67.6	67.6	67.6	84	62.6	4	12	248	0.00	29.800 
16:40	67.1	67.1	67.1	84	62.1	4	8	248	0.00	29.800 
16:45	66.8	66.8	66.8	85	62.1	3	9	270	0.00	29.795 
16:50	66.8	66.8	66.8	85	62.1	3	10	248	0.00	29.795 
16:55	66.6	66.6	66.6	86	62.3	3	7	248	0.00	29.795 
17:00	66.6	66.6	66.6	86	62.3	4	12	248	0.00	29.789 
17:05	66.6	66.6	66.6	87	62.6	3	9	270	0.00	29.789 
17:10	66.4	66.4	66.4	88	62.7	4	12	248	0.00	29.789 
17:15	66.3	66.3	66.3	88	62.6	4	10	270	0.00	29.786 
17:20	66.4	66.4	66.4	87	62.4	6	13	248	0.00	29.786 
17:25	66.4	66.4	66.4	87	62.4	5	12	225	0.00	29.786 
17:30	66.9	66.9	66.9	86	62.6	6	15	270	0.00	29.787 
17:35	67.3	67.3	67.3	85	62.6	5	14	270	0.00	29.787 
17:40	67.4	67.4	67.4	84	62.4	4	11	270	0.00	29.787 
17:45	67.6	67.6	67.6	84	62.6	3	11	248	0.00	29.784 
17:50	67.8	67.8	67.8	84	62.8	4	9	270	0.00	29.784 
17:55	67.8	67.8	67.8	84	62.8	3	8	270	0.00	29.784 
18:00	67.6	67.6	67.6	85	62.9	4	15	270	0.00	29.785 
18:05	67.6	67.6	67.6	85	62.9	4	11	248	0.00	29.785 
18:10	67.6	67.6	67.6	85	62.9	3	10	270	0.00	29.785 
18:15	67.6	67.6	67.6	85	62.9	3	9	248	0.00	29.785 
18:20	67.6	67.6	67.6	85	62.9	4	12	270	0.00	29.785 
18:25	67.8	67.8	67.8	85	63.1	4	10	248	0.00	29.785 
18:30	67.8	67.8	67.8	84	62.8	3	10	248	0.00	29.787 
18:35	67.8	67.8	67.8	84	62.8	3	11	248	0.00	29.787 
18:40	67.9	67.9	67.9	84	62.9	3	9	248	0.00	29.787 
18:45	68.1	68.1	68.1	84	63.1	3	10	248	0.00	29.783 
18:50	68.3	68.3	68.3	84	63.3	3	9	248	0.00	29.783 
18:55	68.1	68.1	68.1	83	62.7	3	10	248	0.00	29.783 
19:00	68.1	68.1	68.1	83	62.7	2	6	270	0.00	29.783 
19:05	68.1	68.1	68.1	83	62.7	4	9	270	0.00	29.783 
19:10	67.9	67.9	67.9	83	62.5	4	9	270	0.00	29.783 
19:15	67.8	67.8	67.8	84	62.8	3	10	270	0.01	29.781 
19:20	67.1	67.1	67.1	87	63.1	4	13	270	0.05	29.781 
19:25	66.1	66.1	66.1	89	62.8	5	11	248	0.01	29.781 
19:30	65.6	65.6	65.6	90	62.6	5	11	248	0.00	29.796 
19:35	65.3	65.3	65.3	90	62.3	3	8	248	0.00	29.796 
19:40	65.0	65.0	65.0	91	62.3	4	8	270	0.00	29.796 
19:45	64.8	64.8	64.8	90	61.8	3	7	270	0.00	29.800 
19:50	64.8	64.8	64.8	90	61.8	4	12	270	0.00	29.800 
19:55	64.8	64.8	64.8	90	61.8	4	9	248	0.00	29.800 
20:00	64.7	64.7	64.7	90	61.7	3	7	248	0.00	29.809 
20:05	64.5	64.5	64.5	89	61.2	3	8	248	0.00	29.809 
20:10	64.5	64.5	64.5	87	60.5	3	6	270	0.00	29.809 
20:15	64.5	64.5	64.5	84	59.6	4	8	248	0.00	29.814 
20:20	64.5	64.5	64.5	82	58.9	4	10	248	0.00	29.814 
20:25	64.5	64.5	64.5	80	58.2	5	14	270	0.00	29.814 
20:30	64.5	64.5	64.5	79	57.8	4	9	270	0.00	29.817 
20:35	64.3	64.3	64.3	79	57.6	4	15	270	0.00	29.817 
20:40	64.3	64.3	64.3	79	57.6	5	10	270	0.00	29.817 
20:45	64.2	64.2	64.2	79	57.5	4	9	248	0.00	29.824 
20:50	64.2	64.2	64.2	79	57.5	4	9	270	0.00	29.824 
20:55	64.0	64.0	64.0	78	57.0	4	10	270	0.00	29.824 
21:00	63.9	63.9	63.9	79	57.3	3	11	248	0.00	29.830 
21:05	63.7	63.7	63.7	79	57.1	2	7	270	0.00	29.830 
21:10	63.7	63.7	63.7	79	57.1	3	5	270	0.00	29.830 
21:15	63.5	63.5	63.5	79	56.9	3	6	270	0.00	29.833 
21:20	63.4	63.4	63.4	79	56.8	2	5	270	0.00	29.833 
21:25	63.4	63.4	63.4	79	56.8	3	5	248	0.00	29.833 
21:30	63.2	63.2	63.2	79	56.6	2	4	248	0.00	29.845 
21:35	63.2	63.2	63.2	80	56.9	2	7	248	0.00	29.845 
21:40	63.1	63.1	63.1	80	56.8	2	5	248	0.00	29.845 
21:45	62.9	62.9	62.9	80	56.6	2	5	248	0.00	29.858 
21:50	62.9	62.9	62.9	80	56.6	2	5	248	0.00	29.858 
21:55	62.9	62.9	62.9	80	56.6	2	4	270	0.00	29.858 
22:00	62.7	62.7	62.7	81	56.8	2	4	248	0.00	29.864 
22:05	62.6	62.6	62.6	81	56.7	2	4	315	0.00	29.864 
22:10	62.6	62.6	62.6	81	56.7	2	4	248	0.00	29.864 
22:15	62.6	62.6	62.6	81	56.7	2	3	270	0.00	29.873 
22:20	62.6	62.6	62.6	81	56.7	2	4	248	0.00	29.873 
22:25	62.4	62.4	62.4	81	56.5	2	4	248	0.00	29.873 
22:30	62.4	62.4	62.4	81	56.5	1	4	248	0.00	29.879 
22:35	62.4	62.4	62.4	81	56.5	1	4	248	0.00	29.879 
22:40	62.3	62.3	62.3	81	56.4	1	3	248	0.00	29.879 
22:45	62.1	62.1	62.1	82	56.5	1	3	248	0.00	29.882 
22:50	62.0	62.0	62.0	82	56.4	0	2	248	0.00	29.882 
22:55	61.8	61.8	61.8	83	56.6	1	5	248	0.00	29.882 
23:00	61.8	61.8	61.8	83	56.6	2	5	248	0.00	29.883 
23:05	61.6	61.6	61.6	83	56.4	1	3	248	0.00	29.883 
23:10	61.6	61.6	61.6	83	56.4	1	3	225	0.00	29.883 
23:15	61.5	61.5	61.5	84	56.6	1	2	225	0.00	29.880 
23:20	61.3	61.3	61.3	84	56.4	1	3	225	0.00	29.880 
23:25	61.2	61.2	61.2	84	56.3	1	2	225	0.00	29.880 
23:30	61.2	61.2	61.2	84	56.3	0	2	248	0.00	29.879 
23:35	61.0	61.0	61.0	85	56.5	1	3	248	0.00	29.879 
23:40	61.0	61.0	61.0	85	56.5	0	2	248	0.00	29.879 
23:45	60.9	60.9	60.9	85	56.4	1	2	248	0.00	29.884 
23:50	60.9	60.9	60.9	85	56.4	0	3	248	0.00	29.884 
23:55	60.7	60.7	60.7	86	56.5	1	3	248	0.00	29.884 

CoCoRaHS
IN-AL-39
A2 Web Hosting
Creative Commons License
GoDaddy
search engine by freefind advanced

loaded 2018-11-17 14:05:12 • last modified 2010-11-18 10:43:29
Privacy PolicyDisclaimer
• wx.awcolley.com is powered by PmWiki v.2002016 •
• all content (unless otherwise noted) © 2018 A W Colley